createdAt,value
2022-11-05T00:00:19.677Z,0.47
2022-11-05T00:03:05.428Z,0.57
2022-11-05T00:05:52.702Z,1.73
2022-11-05T00:08:38.107Z,1.02
2022-11-05T00:11:05.060Z,1.52
2022-11-05T00:13:50.648Z,1.27
2022-11-05T00:16:40.306Z,1.15
2022-11-05T00:19:07.224Z,1.50
2022-11-05T00:21:54.766Z,1.75
2022-11-05T00:24:40.595Z,1.60
2022-11-05T00:27:08.601Z,1.65
2022-11-05T00:29:35.622Z,1.95
2022-11-05T00:32:02.897Z,2.13
2022-11-05T00:34:29.783Z,1.10
2022-11-05T00:36:56.999Z,1.15
2022-11-05T00:39:23.935Z,2.28
2022-11-05T00:42:10.720Z,1.80
2022-11-05T00:44:56.261Z,1.02
2022-11-05T00:47:41.821Z,1.30
2022-11-05T00:50:10.810Z,0.98
2022-11-05T00:53:07.228Z,1.73
2022-11-05T00:55:40.038Z,1.10
2022-11-05T00:58:17.228Z,1.98
2022-11-05T01:00:49.417Z,0.80
2022-11-05T01:03:19.108Z,0.93
2022-11-05T01:05:51.888Z,0.90
2022-11-05T01:08:20.795Z,0.90
2022-11-05T01:10:53.745Z,1.10
2022-11-05T01:13:29.133Z,1.38
2022-11-05T01:15:57.403Z,1.55
2022-11-05T01:18:25.385Z,1.10
2022-11-05T01:20:52.251Z,1.52
2022-11-05T01:23:19.416Z,1.33
2022-11-05T01:25:46.572Z,1.65
2022-11-05T01:28:13.444Z,1.90
2022-11-05T01:30:40.557Z,2.60
2022-11-05T01:33:08.154Z,4.05
2022-11-05T01:35:35.347Z,3.33
2022-11-05T01:38:02.347Z,3.38
2022-11-05T01:40:29.326Z,2.88
2022-11-05T01:42:56.178Z,3.20
2022-11-05T01:45:25.752Z,3.35
2022-11-05T01:48:01.743Z,4.30
2022-11-05T01:50:53.580Z,2.50
2022-11-05T01:53:26.480Z,2.95
2022-11-05T01:56:10.949Z,1.98
2022-11-05T01:58:46.654Z,2.50
2022-11-05T02:01:13.520Z,2.42
2022-11-05T02:03:41.002Z,1.45
2022-11-05T02:06:09.527Z,1.52
2022-11-05T02:08:57.452Z,2.05
2022-11-05T02:11:24.695Z,2.50
2022-11-05T02:13:52.027Z,1.52
2022-11-05T02:16:28.073Z,2.22
2022-11-05T02:19:07.085Z,1.55
2022-11-05T02:21:45.780Z,1.75
2022-11-05T02:24:27.486Z,1.77
2022-11-05T02:27:09.460Z,1.55
2022-11-05T02:29:42.204Z,1.83
2022-11-05T02:32:44.225Z,1.20
2022-11-05T02:35:36.569Z,1.20
2022-11-05T02:38:32.137Z,2.22
2022-11-05T02:41:25.633Z,1.50
2022-11-05T02:44:08.814Z,1.40
2022-11-05T02:46:54.180Z,1.17
2022-11-05T02:49:38.975Z,1.15
2022-11-05T02:52:35.268Z,2.17
2022-11-05T02:55:34.572Z,1.17
2022-11-05T02:58:06.118Z,0.80
2022-11-05T03:00:49.716Z,1.10
2022-11-05T03:03:26.480Z,2.05
2022-11-05T03:06:10.759Z,1.10
2022-11-05T03:09:12.919Z,1.15
2022-11-05T03:12:11.759Z,1.25
2022-11-05T03:15:03.708Z,1.42
2022-11-05T03:17:40.185Z,0.80
2022-11-05T03:20:20.452Z,1.75
2022-11-05T03:23:04.067Z,1.30
2022-11-05T03:25:32.323Z,1.30
2022-11-05T03:28:05.342Z,1.20
2022-11-05T03:30:33.950Z,0.73
2022-11-05T03:33:04.849Z,1.00
2022-11-05T03:35:50.114Z,1.13
2022-11-05T03:38:26.819Z,1.25
2022-11-05T03:40:57.245Z,1.15
2022-11-05T03:43:30.203Z,1.40
2022-11-05T03:46:02.003Z,1.30
2022-11-05T03:48:31.581Z,1.10
2022-11-05T03:51:04.977Z,0.80
2022-11-05T03:53:43.769Z,0.70
2022-11-05T03:56:20.589Z,0.85
2022-11-05T03:58:47.831Z,0.88
2022-11-05T04:01:15.223Z,0.73
2022-11-05T04:03:42.116Z,0.90
2022-11-05T04:06:28.946Z,0.68
2022-11-05T04:09:34.348Z,0.60
2022-11-05T04:12:19.990Z,0.88
2022-11-05T04:14:46.796Z,0.55
2022-11-05T04:17:13.663Z,0.60
2022-11-05T04:20:01.782Z,1.02
2022-11-05T04:22:49.769Z,0.98
2022-11-05T04:25:18.584Z,0.80
2022-11-05T04:27:46.448Z,1.08
2022-11-05T04:30:18.555Z,0.80
2022-11-05T04:33:05.395Z,0.50
2022-11-05T04:35:40.711Z,0.43
2022-11-05T04:38:16.672Z,0.73
2022-11-05T04:40:44.545Z,0.50
2022-11-05T04:43:16.653Z,0.77
2022-11-05T04:45:44.218Z,0.40
2022-11-05T04:48:11.093Z,0.63
2022-11-05T04:50:38.030Z,0.70
2022-11-05T04:53:04.815Z,0.43
2022-11-05T04:55:31.594Z,0.75
2022-11-05T04:57:58.329Z,0.45
2022-11-05T05:00:25.204Z,0.70
2022-11-05T05:02:51.933Z,0.60
2022-11-05T05:05:18.881Z,0.68
2022-11-05T05:07:45.714Z,0.60
2022-11-05T05:10:12.697Z,0.28
2022-11-05T05:12:39.641Z,0.47
2022-11-05T05:15:06.914Z,0.40
2022-11-05T05:17:34.130Z,0.30
2022-11-05T05:20:19.616Z,0.50
2022-11-05T05:22:53.216Z,0.57
2022-11-05T05:25:20.260Z,0.70
2022-11-05T05:27:47.046Z,0.98
2022-11-05T05:30:13.929Z,1.15
2022-11-05T05:32:40.716Z,1.00
2022-11-05T05:35:07.819Z,2.30
2022-11-05T05:37:34.589Z,2.17
2022-11-05T05:40:01.363Z,1.90
2022-11-05T05:42:28.157Z,2.80
2022-11-05T05:44:54.859Z,3.22
2022-11-05T05:47:21.693Z,2.72
2022-11-05T05:49:48.414Z,2.10
2022-11-05T05:52:15.188Z,2.22
2022-11-05T05:54:43.136Z,3.00
2022-11-05T05:57:10.478Z,1.85
2022-11-05T05:59:37.231Z,2.63
2022-11-05T06:02:04.116Z,3.22
2022-11-05T06:04:30.927Z,1.98
2022-11-05T06:06:57.759Z,1.95
2022-11-05T06:09:24.863Z,2.55
2022-11-05T06:11:51.702Z,2.05
2022-11-05T06:14:18.553Z,1.60
2022-11-05T06:16:45.545Z,1.63
2022-11-05T06:19:12.334Z,1.42
2022-11-05T06:21:39.067Z,1.20
2022-11-05T06:24:06.140Z,1.33
2022-11-05T06:26:33.140Z,1.55
2022-11-05T06:29:01.797Z,1.20
2022-11-05T06:31:28.550Z,1.42
2022-11-05T06:33:55.305Z,0.95
2022-11-05T06:36:22.170Z,1.05
2022-11-05T06:38:49.003Z,3.47
2022-11-05T06:41:15.836Z,1.63
2022-11-05T06:43:42.984Z,1.30
2022-11-05T06:46:11.386Z,2.17
2022-11-05T06:48:39.094Z,1.38
2022-11-05T06:51:07.986Z,2.05
2022-11-05T06:53:35.842Z,1.85
2022-11-05T06:56:04.837Z,2.78
2022-11-05T06:58:32.128Z,1.40
2022-11-05T07:01:08.791Z,1.83
2022-11-05T07:03:36.902Z,1.35
2022-11-05T07:06:05.353Z,1.30
2022-11-05T07:08:35.902Z,1.60
2022-11-05T07:11:02.861Z,1.20
2022-11-05T07:13:29.887Z,2.08
2022-11-05T07:15:56.946Z,1.70
2022-11-05T07:18:23.766Z,1.75
2022-11-05T07:20:50.555Z,3.22
2022-11-05T07:23:17.374Z,2.78
2022-11-05T07:25:44.388Z,2.53
2022-11-05T07:28:11.290Z,3.25
2022-11-05T07:30:38.456Z,3.15
2022-11-05T07:33:05.296Z,3.33
2022-11-05T07:35:32.137Z,3.10
2022-11-05T07:37:58.870Z,3.13
2022-11-05T07:40:28.012Z,2.65
2022-11-05T07:42:59.910Z,2.42
2022-11-05T07:45:29.846Z,3.33
2022-11-05T07:48:04.134Z,2.53
2022-11-05T07:50:34.018Z,4.90
2022-11-05T07:53:09.875Z,1.52
2022-11-05T07:55:37.693Z,3.40
2022-11-05T07:58:04.698Z,2.88
2022-11-05T08:00:31.569Z,1.55
2022-11-05T08:03:07.239Z,2.55
2022-11-05T08:05:36.977Z,2.53
2022-11-05T08:08:04.552Z,1.65
2022-11-05T08:10:31.544Z,1.27
2022-11-05T08:12:58.475Z,1.42
2022-11-05T08:15:25.219Z,2.20
2022-11-05T08:17:59.331Z,1.00
2022-11-05T08:20:26.456Z,1.90
2022-11-05T08:22:54.393Z,1.65
2022-11-05T08:25:21.242Z,1.45
2022-11-05T08:27:48.480Z,2.33
2022-11-05T08:30:15.323Z,2.88
2022-11-05T08:32:42.090Z,2.28
2022-11-05T08:35:09.129Z,2.50
2022-11-05T08:37:35.868Z,1.40
2022-11-05T08:40:02.658Z,1.63
2022-11-05T08:42:29.517Z,2.53
2022-11-05T08:44:56.248Z,1.40
2022-11-05T08:47:23.530Z,1.48
2022-11-05T08:49:50.315Z,2.67
2022-11-05T08:52:17.379Z,2.38
2022-11-05T08:54:44.603Z,2.17
2022-11-05T08:57:11.390Z,3.33
2022-11-05T08:59:38.148Z,2.45
2022-11-05T09:02:05.047Z,3.67
2022-11-05T09:04:32.082Z,1.85
2022-11-05T09:06:58.824Z,2.33
2022-11-05T09:09:25.591Z,4.00
2022-11-05T09:14:39.658Z,1.33
2022-11-05T09:17:20.572Z,1.73
2022-11-05T09:19:47.854Z,2.58
2022-11-05T09:22:15.374Z,2.47
2022-11-05T09:24:43.353Z,2.33
2022-11-05T09:27:11.971Z,2.17
2022-11-05T09:29:39.442Z,2.75
2022-11-05T09:32:06.945Z,2.28
2022-11-05T09:34:33.865Z,2.20
2022-11-05T09:37:00.794Z,2.53
2022-11-05T09:39:28.015Z,3.15
2022-11-05T09:42:00.007Z,1.92
2022-11-05T09:44:54.900Z,1.50
2022-11-05T09:47:33.929Z,3.45
2022-11-05T09:50:06.408Z,1.52
2022-11-05T09:52:34.523Z,1.10
2022-11-05T09:55:04.318Z,2.42
2022-11-05T09:57:59.606Z,0.90
2022-11-05T10:00:26.950Z,1.38
2022-11-05T10:03:00.986Z,0.93
2022-11-05T10:05:28.511Z,1.40
2022-11-05T10:08:26.731Z,1.00
2022-11-05T10:10:56.466Z,1.17
2022-11-05T10:13:45.597Z,3.97
2022-11-05T10:16:24.605Z,2.60
2022-11-05T10:19:14.210Z,3.22
2022-11-05T10:24:28.637Z,2.58
2022-11-05T10:26:56.324Z,2.05
2022-11-05T10:29:29.260Z,2.45
2022-11-05T10:32:01.146Z,3.30
2022-11-05T10:34:33.111Z,2.33
2022-11-05T10:37:00.165Z,1.40
2022-11-05T10:39:29.923Z,1.90
2022-11-05T10:42:27.423Z,3.67
2022-11-05T10:45:14.457Z,1.30
2022-11-05T10:47:44.280Z,2.75
2022-11-05T10:50:12.575Z,1.30
2022-11-05T10:52:51.377Z,1.33
2022-11-05T10:55:37.560Z,1.83
2022-11-05T10:58:09.787Z,1.30
2022-11-05T11:00:36.858Z,1.23
2022-11-05T11:03:25.791Z,1.48
2022-11-05T11:06:02.469Z,1.80
2022-11-05T11:08:30.813Z,1.38
2022-11-05T11:10:59.730Z,1.48
2022-11-05T11:13:29.588Z,2.28
2022-11-05T11:16:16.014Z,1.58
2022-11-05T11:18:43.822Z,1.83
2022-11-05T11:21:17.060Z,0.98
2022-11-05T11:23:57.575Z,1.02
2022-11-05T11:26:27.023Z,2.03
2022-11-05T11:29:16.036Z,3.20
2022-11-05T11:31:43.084Z,1.83
2022-11-05T11:34:22.193Z,2.35
2022-11-05T11:36:56.563Z,2.10
2022-11-05T11:39:30.909Z,0.90
2022-11-05T11:42:05.543Z,2.63
2022-11-05T11:44:41.140Z,0.93
2022-11-05T11:47:14.336Z,2.08
2022-11-05T11:50:00.566Z,1.27
2022-11-05T11:52:28.233Z,1.55
2022-11-05T11:55:07.544Z,2.70
2022-11-05T11:57:47.452Z,2.30
2022-11-05T12:00:15.610Z,1.40
2022-11-05T12:02:45.827Z,1.65
2022-11-05T12:05:19.155Z,1.60
2022-11-05T12:07:52.779Z,1.08
2022-11-05T12:10:23.278Z,2.08
2022-11-05T12:13:11.730Z,0.80
2022-11-05T12:15:49.128Z,1.48
2022-11-05T12:18:34.478Z,1.13
2022-11-05T12:21:08.752Z,1.20
2022-11-05T12:23:59.683Z,2.67
2022-11-05T12:26:29.600Z,3.38
2022-11-05T12:29:17.836Z,0.80
2022-11-05T12:31:59.720Z,1.02
2022-11-05T12:34:35.727Z,0.60
2022-11-05T12:37:14.230Z,1.83
2022-11-05T12:40:01.801Z,1.58
2022-11-05T12:42:44.067Z,1.73
2022-11-05T12:45:22.706Z,1.00
2022-11-05T12:48:04.170Z,1.40
2022-11-05T12:50:46.606Z,2.78
2022-11-05T12:53:33.538Z,3.33
2022-11-05T12:56:09.655Z,3.17
2022-11-05T12:58:45.996Z,3.33
2022-11-05T13:01:20.295Z,2.97
2022-11-05T13:03:56.854Z,1.58
2022-11-05T13:06:42.730Z,2.65
2022-11-05T13:09:17.691Z,1.80
2022-11-05T13:12:02.884Z,1.35
2022-11-05T13:14:40.217Z,1.48
2022-11-05T13:17:19.016Z,1.58
2022-11-05T13:20:11.721Z,0.75
2022-11-05T13:22:53.849Z,3.63
2022-11-05T13:25:27.423Z,0.88
2022-11-05T13:28:21.963Z,0.70
2022-11-05T13:30:53.097Z,1.85
2022-11-05T13:33:22.052Z,0.50
2022-11-05T13:36:26.934Z,0.40
2022-11-05T13:39:01.356Z,1.02
2022-11-05T13:41:46.399Z,0.50
2022-11-05T13:44:41.322Z,0.63
2022-11-05T13:47:24.300Z,0.80
2022-11-05T13:50:02.993Z,2.03
2022-11-05T13:52:44.294Z,1.08
2022-11-05T13:55:35.863Z,1.42
2022-11-05T13:58:43.944Z,4.07
2022-11-05T14:01:42.802Z,4.03
2022-11-05T14:04:19.460Z,2.30
2022-11-05T14:06:46.866Z,2.55
2022-11-05T14:09:22.017Z,3.42
2022-11-05T14:11:52.743Z,1.98
2022-11-05T14:14:31.443Z,2.55
2022-11-05T14:17:07.420Z,2.67
2022-11-05T14:20:01.138Z,2.50
2022-11-05T14:22:32.120Z,2.92
2022-11-05T14:25:00.402Z,2.45
2022-11-05T14:27:29.872Z,2.95
2022-11-05T14:29:57.237Z,2.53
2022-11-05T14:32:27.988Z,2.58
2022-11-05T14:35:00.899Z,2.67
2022-11-05T14:37:31.080Z,3.22
2022-11-05T14:40:36.452Z,2.40
2022-11-05T14:43:18.033Z,2.50
2022-11-05T14:45:57.076Z,2.60
2022-11-05T14:48:44.187Z,3.03
2022-11-05T14:51:38.591Z,2.63
2022-11-05T14:54:34.450Z,5.57
2022-11-05T14:57:02.605Z,4.53
2022-11-05T14:59:31.653Z,5.93
2022-11-05T15:02:11.403Z,6.85
2022-11-05T15:04:45.477Z,8.05
2022-11-05T15:07:29.244Z,7.03
2022-11-05T15:10:17.398Z,6.32
2022-11-05T15:12:54.512Z,4.85
2022-11-05T15:15:28.408Z,6.95
2022-11-05T15:17:58.357Z,6.20
2022-11-05T15:20:40.807Z,7.45
2022-11-05T15:23:16.212Z,6.00
2022-11-05T15:26:00.249Z,6.30
2022-11-05T15:28:40.547Z,8.07
2022-11-05T15:31:13.357Z,6.57
2022-11-05T15:33:42.076Z,6.20
2022-11-05T15:36:16.308Z,6.95
2022-11-05T15:38:56.694Z,7.57
2022-11-05T15:41:34.590Z,6.88
2022-11-05T15:44:02.864Z,7.35
2022-11-05T15:46:30.195Z,6.13
2022-11-05T15:49:07.325Z,9.40
2022-11-05T15:51:35.980Z,7.07
2022-11-05T15:56:56.072Z,5.93
2022-11-05T15:59:25.437Z,5.18
2022-11-05T16:02:05.940Z,6.70
2022-11-05T16:04:34.730Z,4.88
2022-11-05T16:07:12.439Z,5.47
2022-11-05T16:09:43.644Z,5.78
2022-11-05T16:12:19.795Z,5.80
2022-11-05T16:15:09.338Z,4.45
2022-11-05T16:17:47.980Z,4.90
2022-11-05T16:20:27.649Z,4.38
2022-11-05T16:22:57.706Z,3.67
2022-11-05T16:25:31.936Z,3.95
2022-11-05T16:28:00.308Z,3.28
2022-11-05T16:30:27.962Z,3.38
2022-11-05T16:33:02.248Z,3.65
2022-11-05T16:35:29.251Z,5.00
2022-11-05T16:37:56.076Z,4.15
2022-11-05T16:40:25.427Z,4.78
2022-11-05T16:42:53.993Z,5.25
2022-11-05T16:45:24.217Z,5.32
2022-11-05T16:47:51.561Z,5.13
2022-11-05T16:50:25.121Z,4.65
2022-11-05T16:52:52.374Z,4.57
2022-11-05T16:55:20.147Z,3.53
2022-11-05T16:57:52.699Z,4.70
2022-11-05T17:00:21.126Z,5.00
2022-11-05T17:02:48.355Z,4.20
2022-11-05T17:05:18.220Z,3.50
2022-11-05T17:07:45.056Z,3.22
2022-11-05T17:10:11.877Z,4.32
2022-11-05T17:12:38.708Z,3.97
2022-11-05T17:15:25.625Z,7.30
2022-11-05T17:17:53.618Z,2.83
2022-11-05T17:20:42.000Z,4.03
2022-11-05T17:23:17.608Z,5.65
2022-11-05T17:25:47.417Z,6.38
2022-11-05T17:28:14.991Z,4.55
2022-11-05T17:30:42.814Z,3.67
2022-11-05T17:33:12.261Z,3.28
2022-11-05T17:35:40.691Z,4.55
2022-11-05T17:38:07.994Z,4.95
2022-11-05T17:40:36.284Z,5.20
2022-11-05T17:43:03.460Z,4.10
2022-11-05T17:45:30.464Z,3.80
2022-11-05T17:47:57.269Z,3.15
2022-11-05T17:50:24.120Z,2.58
2022-11-05T17:52:51.139Z,3.60
2022-11-05T17:55:18.045Z,3.70
2022-11-05T17:57:49.822Z,2.92
2022-11-05T18:00:22.198Z,2.78
2022-11-05T18:02:51.804Z,5.15
2022-11-05T18:05:20.266Z,4.13
2022-11-05T18:07:48.074Z,4.55
2022-11-05T18:10:15.487Z,4.22
2022-11-05T18:12:42.958Z,3.83
2022-11-05T18:15:10.135Z,4.65
2022-11-05T18:17:37.137Z,5.50
2022-11-05T18:20:11.626Z,3.20
2022-11-05T18:22:42.131Z,2.50
2022-11-05T18:25:10.987Z,4.55
2022-11-05T18:27:38.148Z,4.00
2022-11-05T18:30:05.426Z,3.40
2022-11-05T18:32:32.328Z,3.10
2022-11-05T18:34:59.269Z,2.78
2022-11-05T18:37:26.144Z,2.42
2022-11-05T18:39:53.370Z,3.13
2022-11-05T18:42:21.529Z,2.97
2022-11-05T18:44:48.940Z,3.67
2022-11-05T18:47:16.009Z,3.28
2022-11-05T18:49:43.116Z,4.57
2022-11-05T18:52:10.255Z,4.40
2022-11-05T18:54:37.334Z,4.43
2022-11-05T18:57:04.422Z,2.75
2022-11-05T18:59:37.571Z,2.75
2022-11-05T19:02:05.702Z,2.92
2022-11-05T19:04:32.878Z,4.47
2022-11-05T19:07:04.450Z,4.07
2022-11-05T19:09:33.749Z,6.05
2022-11-05T19:12:01.900Z,4.45
2022-11-05T19:14:30.139Z,4.70
2022-11-05T19:16:58.318Z,6.43
2022-11-05T19:19:25.469Z,3.10
2022-11-05T19:21:52.940Z,2.65
2022-11-05T19:24:19.719Z,2.65
2022-11-05T19:26:47.563Z,2.58
2022-11-05T19:29:14.362Z,3.03
2022-11-05T19:31:41.270Z,3.40
2022-11-05T19:34:08.313Z,2.28
2022-11-05T19:36:35.209Z,2.72
2022-11-05T19:39:09.127Z,2.08
2022-11-05T19:41:36.201Z,3.78
2022-11-05T19:44:03.380Z,5.30
2022-11-05T19:46:31.072Z,2.53
2022-11-05T19:48:59.738Z,5.82
2022-11-05T19:51:29.978Z,2.90
2022-11-05T19:53:56.823Z,3.33
2022-11-05T19:56:26.058Z,2.97
2022-11-05T19:58:54.355Z,4.90
2022-11-05T20:01:23.605Z,3.45
2022-11-05T20:03:51.558Z,3.03
2022-11-05T20:06:28.683Z,3.75
2022-11-05T20:09:20.501Z,2.55
2022-11-05T20:11:48.431Z,3.45
2022-11-05T20:14:15.378Z,4.07
2022-11-05T20:16:43.219Z,3.35
2022-11-05T20:19:14.267Z,5.25
2022-11-05T20:21:41.165Z,2.95
2022-11-05T20:24:08.694Z,2.75
2022-11-05T20:26:35.520Z,3.42
2022-11-05T20:29:02.307Z,2.15
2022-11-05T20:31:29.169Z,2.97
2022-11-05T20:33:57.022Z,4.45
2022-11-05T20:36:25.172Z,2.53
2022-11-05T20:38:55.369Z,3.08
2022-11-05T20:41:23.103Z,4.85
2022-11-05T20:43:51.011Z,3.47
2022-11-05T20:46:20.282Z,4.63
2022-11-05T20:48:47.742Z,4.15
2022-11-05T20:51:16.983Z,2.47
2022-11-05T20:53:44.269Z,2.33
2022-11-05T20:56:22.917Z,2.15
2022-11-05T20:58:50.343Z,2.63
2022-11-05T21:01:17.860Z,3.08
2022-11-05T21:03:46.751Z,3.85
2022-11-05T21:06:14.290Z,2.42
2022-11-05T21:08:41.232Z,2.25
2022-11-05T21:11:08.215Z,2.05
2022-11-05T21:13:35.070Z,3.47
2022-11-05T21:16:02.586Z,1.85
2022-11-05T21:18:33.120Z,2.85
2022-11-05T21:21:00.503Z,2.85
2022-11-05T21:23:28.713Z,1.27
2022-11-05T21:25:55.985Z,1.73
2022-11-05T21:28:23.054Z,1.30
2022-11-05T21:30:49.851Z,2.42
2022-11-05T21:33:18.455Z,1.50
2022-11-05T21:35:48.109Z,1.25
2022-11-05T21:38:16.725Z,2.00
2022-11-05T21:40:44.943Z,1.42
2022-11-05T21:43:12.469Z,1.33
2022-11-05T21:45:40.468Z,2.90
2022-11-05T21:48:08.265Z,1.58
2022-11-05T21:50:54.057Z,2.05
2022-11-05T21:53:39.698Z,1.80
2022-11-05T21:56:45.820Z,1.80
2022-11-05T21:59:33.993Z,1.52
2022-11-05T22:02:04.098Z,2.70
2022-11-05T22:04:33.536Z,1.98
2022-11-05T22:07:00.414Z,2.90
2022-11-05T22:09:28.295Z,2.15
2022-11-05T22:11:55.506Z,1.17
2022-11-05T22:14:22.774Z,0.98
2022-11-05T22:16:49.882Z,1.13
2022-11-05T22:19:17.379Z,1.25
2022-11-05T22:21:44.227Z,1.05
2022-11-05T22:24:11.384Z,1.65
2022-11-05T22:26:38.615Z,1.02
2022-11-05T22:29:06.450Z,0.40
2022-11-05T22:31:36.449Z,0.60
2022-11-05T22:34:04.592Z,0.52
2022-11-05T22:36:32.099Z,0.45
2022-11-05T22:38:59.091Z,0.50
2022-11-05T22:41:26.367Z,1.00
2022-11-05T22:43:53.190Z,1.73
2022-11-05T22:46:22.828Z,1.65
2022-11-05T22:48:50.216Z,2.15
2022-11-05T22:51:22.819Z,3.15
2022-11-05T22:53:50.191Z,2.70
2022-11-05T22:56:22.398Z,3.10
2022-11-05T22:58:49.717Z,2.13
2022-11-05T23:01:17.755Z,1.38
2022-11-05T23:03:46.432Z,2.80
2022-11-05T23:06:46.595Z,2.35
2022-11-05T23:09:35.050Z,1.90
2022-11-05T23:12:04.320Z,3.58
2022-11-05T23:14:31.281Z,3.22
2022-11-05T23:17:16.638Z,5.22
2022-11-05T23:20:02.144Z,2.72
2022-11-05T23:22:49.747Z,2.35
2022-11-05T23:25:19.186Z,2.63
2022-11-05T23:27:49.616Z,3.15
2022-11-05T23:30:27.381Z,5.70
2022-11-05T23:32:55.905Z,3.08
2022-11-05T23:35:42.620Z,2.47
2022-11-05T23:38:28.065Z,3.60
2022-11-05T23:41:13.422Z,3.00
2022-11-05T23:43:58.979Z,3.35
2022-11-05T23:46:44.587Z,2.90
2022-11-05T23:49:11.377Z,3.05
2022-11-05T23:51:38.165Z,2.65
2022-11-05T23:54:05.261Z,3.22
2022-11-05T23:56:32.652Z,3.58
2022-11-05T23:58:59.467Z,3.60
